Flight Track Log - Related Links

Times and Time Zones

All times are in EDT time to prevent confusion due to time zone crossing. See the USC108 flight status page for this flight to view local times or setup timezone preferences in your user account.

Time Position Orientation Groundspeed Altitude Reporting Facility
EDT Latitude Longitude Course Direction KTS MPH feet Rate Location/Type
Fri 11:04:25 PM 39.8058 -82.9394 236° Southwest 108 124 1,100  Level Indianapolis Center
Fri 11:05:38 PM 39.7819 -82.9856 236° Southwest 128 147 2,600 1,046 Climbing Indianapolis Center
Fri 11:06:14 PM 39.7728 -83.0036 237° Southwest 124 143 3,000 689 Climbing Indianapolis Center
Fri 11:06:39 PM 39.7597 -83.0317 239° Southwest 176 203 3,300 590 Climbing Indianapolis Center
Fri 11:07:15 PM 39.7500 -83.0558 242° Southwest 148 170 3,600 556 Climbing Indianapolis Center
Fri 11:07:33 PM 39.7375 -83.0808 237° Southwest 165 190 3,800 590 Climbing Indianapolis Center
Fri 11:08:16 PM 39.7247 -83.1061 237° Southwest 160 184 4,200 590 Climbing Indianapolis Center
Fri 11:08:34 PM 39.7133 -83.1294 238° Southwest 164 189 4,400 393 Climbing Indianapolis Center
Fri 11:09:17 PM 39.7006 -83.1569 239° Southwest 162 186 4,600 492 Climbing Indianapolis Center
Fri 11:09:35 PM 39.6911 -83.1783 240° Southwest 162 186 4,900 590 Climbing Indianapolis Center
Fri 11:10:18 PM 39.6775 -83.2078 239° Southwest 162 186 5,200 500 Climbing Indianapolis Center
Fri 11:10:35 PM 39.6686 -83.2297 242° Southwest 159 183 5,400 492 Climbing Indianapolis Center
Fri 11:11:19 PM 39.6536 -83.2561 234° Southwest 159 183 5,700 537 Climbing Indianapolis Center
Fri 11:11:42 PM 39.6397 -83.2806 234° Southwest 150 173 6,000 295 Climbing Indianapolis Center
Fri 11:12:20 PM 39.6272 -83.3008 231° Southwest 155 178 6,000  Level Indianapolis Center
Fri 11:12:49 PM 39.6111 -83.3314 236° Southwest 165 190 6,000  Level Indianapolis Center
Fri 11:13:21 PM 39.6008 -83.3519 237° Southwest 164 189 6,000  Level Indianapolis Center
Fri 11:13:49 PM 39.5822 -83.3819 231° Southwest 170 196 6,000  Level Indianapolis Center
Fri 11:14:22 PM 39.5647 -83.4083 229° Southwest 171 197 6,000  Level Indianapolis Center
Fri 11:14:50 PM 39.5494 -83.4322 230° Southwest 172 198 6,000  Level Indianapolis Center
Fri 11:15:23 PM 39.5406 -83.4497 237° Southwest 171 197 6,000  Level Indianapolis Center
Fri 11:15:50 PM 39.5228 -83.4831 235° Southwest 175 201 6,000  Level Indianapolis Center
Fri 11:16:24 PM 39.5081 -83.5114 236° Southwest 174 200 6,000  Level Indianapolis Center
Fri 11:16:51 PM 39.4958 -83.5339 235° Southwest 175 201 6,000  Level Indianapolis Center
Fri 11:17:25 PM 39.4786 -83.5617 231° Southwest 174 200 6,000  Level Indianapolis Center
Fri 11:17:52 PM 39.4672 -83.5844 237° Southwest 170 196 6,000  Level Indianapolis Center
Fri 11:18:26 PM 39.4506 -83.6133 233° Southwest 174 200 6,000  Level Indianapolis Center
Fri 11:18:52 PM 39.4381 -83.6375 236° Southwest 176 203 6,000  Level Indianapolis Center
Fri 11:19:27 PM 39.4231 -83.6658 236° Southwest 174 200 6,000  Level Indianapolis Center
Fri 11:19:53 PM 39.4111 -83.6883 236° Southwest 174 200 6,000  Level Indianapolis Center
Fri 11:20:28 PM 39.3958 -83.7181 236° Southwest 174 200 6,000  Level Indianapolis Center
Fri 11:21:29 PM 39.3681 -83.7694 235° Southwest 173 199 6,000  Level Indianapolis Center
Fri 11:22:29 PM 39.3411 -83.8211 236° Southwest 172 198 6,000  Level Indianapolis Center
Fri 11:23:30 PM 39.3136 -83.8744 236° Southwest 174 200 6,000  Level Indianapolis Center
Fri 11:24:31 PM 39.2881 -83.9294 239° Southwest 175 201 6,000  Level Indianapolis Center
Fri 11:25:32 PM 39.2611 -83.9833 237° Southwest 177 204 6,000  Level Indianapolis Center
Fri 11:26:33 PM 39.2350 -84.0383 239° Southwest 177 204 6,000  Level Indianapolis Center
Fri 11:27:34 PM 39.2078 -84.0919 237° Southwest 178 205 6,000  Level Indianapolis Center
Fri 11:28:34 PM 39.1806 -84.1467 237° Southwest 179 206 6,000  Level Indianapolis Center
Fri 11:29:35 PM 39.1522 -84.2003 236° Southwest 179 206 6,000  Level Indianapolis Center
Fri 11:30:36 PM 39.1250 -84.2553 237° Southwest 180 207 6,000  Level Indianapolis Center
Fri 11:32:27 PM 39.0833 -84.3500 240° Southwest 178 205 6,000  Level Cincinnati TRACON
Fri 11:33:21 PM 39.0500 -84.4000 229° Southwest 177 204 6,000  Level Cincinnati TRACON
Fri 11:34:21 PM 39.0167 -84.4500 229° Southwest 179 206 6,000  Level Cincinnati TRACON
Fri 11:35:21 PM 39.0000 -84.5000 247° West 179 206 6,000  Level Cincinnati TRACON
Fri 11:36:15 PM 38.9667 -84.5500 229° Southwest 181 208 6,000  Level Cincinnati TRACON
Fri 11:37:15 PM 38.9500 -84.6000 247° West 183 211 6,000  Level Cincinnati TRACON
Fri 11:38:15 PM 38.9167 -84.6667 237° Southwest 183 211 6,000  Level Cincinnati TRACON
Fri 11:39:15 PM 38.9000 -84.7167 247° West 180 207 6,000  Level Cincinnati TRACON
Fri 11:40:15 PM 38.8667 -84.7667 229° Southwest 182 209 6,000  Level Cincinnati TRACON
Fri 11:40:43 PM 38.8539 -84.7917 237° Southwest 182 209 6,000  Level Indianapolis Center
Fri 11:41:44 PM 38.8261 -84.8456 237° Southwest 182 209 6,000  Level Indianapolis Center
Fri 11:42:45 PM 38.7986 -84.8989 237° Southwest 180 207 6,000  Level Indianapolis Center
Fri 11:43:46 PM 38.7678 -84.9619 238° Southwest 176 203 6,000  Level Indianapolis Center
Fri 11:44:46 PM 38.7392 -85.0139 235° Southwest 178 205 6,000  Level Indianapolis Center
Fri 11:45:47 PM 38.7133 -85.0661 238° Southwest 176 203 6,000  Level Indianapolis Center
Fri 11:46:48 PM 38.6858 -85.1200 237° Southwest 179 206 6,000  Level Indianapolis Center
Fri 11:47:49 PM 38.6578 -85.1742 236° Southwest 182 209 6,000 -49 Level Indianapolis Center
Fri 11:48:50 PM 38.6289 -85.2303 237° Southwest 180 207 5,900 -198 Descending Indianapolis Center
Fri 11:49:50 PM 38.5997 -85.2847 236° Southwest 183 211 5,600 -397 Descending Indianapolis Center
Fri 11:50:51 PM 38.5706 -85.3417 237° Southwest 190 219 5,100 -443 Descending Indianapolis Center
Fri 11:51:52 PM 38.5433 -85.3967 238° Southwest 185 213 4,700 -344 Descending Indianapolis Center
Fri 11:52:53 PM 38.5208 -85.4533 243° Southwest 181 208 4,400 -397 Descending Indianapolis Center
Fri 11:53:53 PM 38.5056 -85.5078 250° West 185 213 3,900 -500 Descending Indianapolis Center

Login

Don't have an account? Register now (free) for customized features, flight alerts, and more!